Meteo Giornale » Osservazioni meteo Italia » Milano-Linate

ore: 06:50 - Osservazioni Meteo Milano-Linate
Lat. 45° 26' N Lon. 9° 17' E Alt. 107 metri s.l.m.

sereno Europe/Rome

-2 °C

Sereno

Temp. 24 Ore

-2 °C

13 °C

Nord

1.8 Km/h

Dew point -4 °C

Umidità 86 %

Visibilità  10 Km

Il sole sorge alle ore 07:51

Il sole tramonta alle ore 16:41

Data e Ora Cielo e Fenomeni T °C DP °C Um. % Pres. hPa Vis. km Vento km/h
Oggi h: 06:50 sereno Sereno -2 -4 86 1019 10 N 1.8
Oggi h: 06:20 sereno Sereno -2 -4 86 1019 10 N 5.5
Oggi h: 05:50 sereno Sereno -2 -3 92 1019 10 N 3.7
Oggi h: 03:50 sereno Sereno -2 -3 92 1019 10 N 1.8
Oggi h: 03:20 sereno Sereno -1 -2 92 1019 10 N 1.8
Oggi h: 02:50 sereno Sereno -0 -3 80 1019 10 N 1.8
Oggi h: 02:20 sereno Sereno -1 -2 92 1019 10 N 3.7
Oggi h: 01:50 sereno Sereno -1 -3 86 1019 10 N 1.8
Oggi h: 01:20 sereno Sereno 0 -1 92 1019 10 N 3.7
Oggi h: 00:50 sereno Sereno 0 -1 92 1020 10 N 1.8
Oggi h: 00:20 sereno Sereno 0 -1 92 1020 10 N 1.8
Ieri h: 23:50 sereno Sereno 1 -0 93 1020 10 N 1.8
Ieri h: 23:20 sereno Sereno 1 -0 93 1020 10 N 3.7
Ieri h: 22:50 sereno Sereno 1 0 93 1020 10 N 5.5
Ieri h: 22:20 sereno Sereno 2 -0 86 1020 10 N 3.7
Ieri h: 21:50 sereno Sereno 4 1 80 1019 10 N 5.5
Ieri h: 21:20 sereno Sereno 4 0 75 1019 10 N 5.5
Ieri h: 20:50 sereno Sereno 3 -0 80 1019 10 NE 7.4
Ieri h: 20:20 sereno Sereno 3 -0 80 1019 10 N 3.7
Ieri h: 19:50 sereno Sereno 5 1 75 1018 10 E/NE 9.3
Ieri h: 19:20 sereno Sereno 4 0 75 1018 10 O 7.4
Ieri h: 18:50 sereno Sereno 5 1 75 1018 10 O 11.1
Ieri h: 18:20 sereno Sereno 6 1 70 1018 10 O 7.4
Ieri h: 17:50 sereno Sereno 7 1 65 1018 10 N 1.8
Ieri h: 17:20 sereno Sereno 7 1 65 1018 10 S/SO 9.3
Ieri h: 16:50 sereno Sereno 7 1 65 1018 10 S/SE 9.3
Ieri h: 16:20 sereno Sereno 10 -3 39 1018 10 N 5.5
Ieri h: 15:50 sereno Sereno 11 0 46 1017 10 N 5.5
Ieri h: 15:20 sereno Sereno 12 -11 18 1017 10 N 14.8
Ieri h: 14:50 sereno Sereno 13 -11 17 1017 10 N/NO 13
Ieri h: 14:20 sereno Sereno 13 -11 17 1017 10 N 11.1
Ieri h: 13:50 sereno Sereno 12 -3 34 1018 10 N 3.7
Ieri h: 13:20 sereno Sereno 11 -1 43 1018 10 O 7.4
Ieri h: 12:50 sereno Sereno 11 -1 43 1018 10 SO 13
Ieri h: 12:20 sereno Sereno 10 0 49 1018 10 SO 14.8
Ieri h: 11:50 sereno Sereno 12 -9 22 1018 10 N 14.8
Ieri h: 11:20 sereno Sereno 12 -9 22 1019 10 N 18.5
Ieri h: 10:50 sereno Sereno 11 -6 29 1019 10 N 18.5
Ieri h: 10:20 sereno Sereno 10 -5 34 1019 10 N 20.3
Ieri h: 09:50 sereno Sereno 9 -4 39 1019 10 N 14.8
Ieri h: 09:20 sereno Sereno 5 -1 65 1019 10 N 5.5
Ieri h: 08:50 sereno Sereno 4 -3 60 1019 10 N 5.5
Ieri h: 08:20 sereno Sereno 2 -1 80 1019 10 O 7.4
Ieri h: 07:50 sereno Sereno 2 -1 80 1018 10 O 9.3
Ieri h: 07:20 sereno Sereno 3 -1 74 1018 10 N 3.7
Ieri h: 06:50 sereno Sereno 1 -2 80 1018 10 S 7.4